createdAt,value
2019-05-07T00:00:27.890Z,13.72
2019-05-07T00:02:56.197Z,14.37
2019-05-07T00:05:24.516Z,13.53
2019-05-07T00:07:52.826Z,13.70
2019-05-07T00:10:21.806Z,13.13
2019-05-07T00:12:52.013Z,14.60
2019-05-07T00:15:20.277Z,14.10
2019-05-07T00:17:48.876Z,14.80
2019-05-07T00:20:17.189Z,14.83
2019-05-07T00:22:45.524Z,13.50
2019-05-07T00:25:13.989Z,13.75
2019-05-07T00:27:42.761Z,14.18
2019-05-07T00:30:12.615Z,14.33
2019-05-07T00:32:42.390Z,14.00
2019-05-07T00:35:13.136Z,14.00
2019-05-07T00:37:52.358Z,13.80
2019-05-07T00:40:32.137Z,13.10
2019-05-07T00:43:04.798Z,13.75
2019-05-07T00:45:52.734Z,13.70
2019-05-07T00:48:20.598Z,14.98
2019-05-07T00:50:52.680Z,13.67
2019-05-07T00:53:20.621Z,13.65
2019-05-07T00:55:49.240Z,15.10
2019-05-07T00:58:17.529Z,13.50
2019-05-07T01:00:46.115Z,13.95
2019-05-07T01:03:14.871Z,14.55
2019-05-07T01:05:43.396Z,14.40
2019-05-07T01:08:13.201Z,14.45
2019-05-07T01:10:42.066Z,13.60
2019-05-07T01:13:12.642Z,13.95
2019-05-07T01:15:42.767Z,14.80
2019-05-07T01:18:12.342Z,13.25
2019-05-07T01:20:42.275Z,14.28
2019-05-07T01:23:13.227Z,13.50
2019-05-07T01:25:43.040Z,14.60
2019-05-07T01:28:13.260Z,13.48
2019-05-07T01:30:43.213Z,14.20
2019-05-07T01:33:19.590Z,14.60
2019-05-07T01:36:07.820Z,13.80
2019-05-07T01:38:36.130Z,13.62
2019-05-07T01:41:04.595Z,14.38
2019-05-07T01:43:32.905Z,13.60
2019-05-07T01:46:03.148Z,14.30
2019-05-07T01:48:32.372Z,14.60
2019-05-07T01:51:03.175Z,14.33
2019-05-07T01:53:32.322Z,14.38
2019-05-07T01:56:03.052Z,15.43
2019-05-07T01:58:33.145Z,15.88
2019-05-07T02:01:02.780Z,15.10
2019-05-07T02:03:52.682Z,14.50
2019-05-07T02:06:22.543Z,15.95
2019-05-07T02:08:58.429Z,15.68
2019-05-07T02:11:43.715Z,14.85
2019-05-07T02:14:13.674Z,16.30
2019-05-07T02:16:42.016Z,16.23
2019-05-07T02:19:12.507Z,16.37
2019-05-07T02:21:42.272Z,16.00
2019-05-07T02:24:12.440Z,16.30
2019-05-07T02:26:42.537Z,15.80
2019-05-07T02:29:12.225Z,15.55
2019-05-07T02:31:43.763Z,15.32
2019-05-07T02:34:13.778Z,15.00
2019-05-07T02:36:43.294Z,15.60
2019-05-07T02:39:13.107Z,14.83
2019-05-07T02:41:44.093Z,14.93
2019-05-07T02:44:14.095Z,14.90
2019-05-07T02:46:58.686Z,15.13
2019-05-07T02:49:37.621Z,15.17
2019-05-07T02:52:16.550Z,14.20
2019-05-07T02:54:46.509Z,13.90
2019-05-07T02:57:16.999Z,14.47
2019-05-07T02:59:45.179Z,14.40
2019-05-07T03:02:14.041Z,14.00
2019-05-07T03:04:43.627Z,12.30
2019-05-07T03:07:13.153Z,13.60
2019-05-07T03:09:43.122Z,12.65
2019-05-07T03:12:13.165Z,12.80
2019-05-07T03:14:43.808Z,12.30
2019-05-07T03:17:13.263Z,12.40
2019-05-07T03:19:43.555Z,12.88
2019-05-07T03:22:13.994Z,12.50
2019-05-07T03:24:49.122Z,13.60
2019-05-07T03:27:17.745Z,12.60
2019-05-07T03:29:47.692Z,13.05
2019-05-07T03:32:29.499Z,12.78
2019-05-07T03:35:06.026Z,12.65
2019-05-07T03:37:35.249Z,13.05
2019-05-07T03:40:03.789Z,13.43
2019-05-07T03:42:33.503Z,13.85
2019-05-07T03:45:03.958Z,13.50
2019-05-07T03:47:44.051Z,13.32
2019-05-07T03:50:14.616Z,13.53
2019-05-07T03:52:43.313Z,13.57
2019-05-07T03:55:14.596Z,12.85
2019-05-07T03:57:43.575Z,12.55
2019-05-07T04:00:13.535Z,13.40
2019-05-07T04:02:43.814Z,13.27
2019-05-07T04:05:14.042Z,12.98
2019-05-07T04:07:43.036Z,12.60
2019-05-07T04:10:14.603Z,13.80
2019-05-07T04:12:44.076Z,13.53
2019-05-07T04:15:14.528Z,13.25
2019-05-07T04:17:43.130Z,12.83
2019-05-07T04:20:13.490Z,12.70
2019-05-07T04:22:43.117Z,13.48
2019-05-07T04:25:23.948Z,13.53
2019-05-07T04:28:03.983Z,14.63
2019-05-07T04:30:33.278Z,13.88
2019-05-07T04:33:03.653Z,13.43
2019-05-07T04:35:43.035Z,13.72
2019-05-07T04:38:09.851Z,13.98
2019-05-07T04:40:38.146Z,15.20
2019-05-07T04:43:06.694Z,15.90
2019-05-07T04:45:35.159Z,14.80
2019-05-07T04:48:03.482Z,14.00
2019-05-07T04:50:42.758Z,14.75
2019-05-07T04:53:03.787Z,13.60
2019-05-07T04:55:33.489Z,14.30
2019-05-07T04:58:03.418Z,14.40
2019-05-07T05:00:33.586Z,14.80
2019-05-07T05:03:06.389Z,14.70
2019-05-07T05:05:34.860Z,15.30
2019-05-07T05:08:03.867Z,15.45
2019-05-07T05:10:33.658Z,14.63
2019-05-07T05:13:03.146Z,15.15
2019-05-07T05:15:32.245Z,15.35
2019-05-07T05:18:02.693Z,16.15
2019-05-07T05:20:33.643Z,15.85
2019-05-07T05:23:15.694Z,15.58
2019-05-07T05:25:44.067Z,15.53
2019-05-07T05:28:13.388Z,15.28
2019-05-07T05:30:56.761Z,15.83
2019-05-07T05:33:25.073Z,16.37
2019-05-07T05:35:53.420Z,15.30
2019-05-07T05:38:22.289Z,16.90
2019-05-07T05:40:52.133Z,16.17
2019-05-07T05:43:37.390Z,15.58
2019-05-07T05:46:07.424Z,16.05
2019-05-07T05:48:35.734Z,17.00
2019-05-07T05:51:05.793Z,16.40
2019-05-07T05:53:45.018Z,17.10
2019-05-07T05:56:32.265Z,15.60
2019-05-07T05:59:12.140Z,16.27
2019-05-07T06:04:44.801Z,15.43
2019-05-07T06:07:17.780Z,15.80
2019-05-07T06:09:47.729Z,14.40
2019-05-07T06:12:34.169Z,13.85
2019-05-07T06:15:22.085Z,15.48
2019-05-07T06:18:17.662Z,14.05
2019-05-07T06:20:35.087Z,15.40
2019-05-07T06:23:22.514Z,15.10
2019-05-07T06:25:52.303Z,15.30
2019-05-07T06:28:22.376Z,16.05
2019-05-07T06:30:52.691Z,15.03
2019-05-07T06:33:23.014Z,15.68
2019-05-07T06:35:52.036Z,15.60
2019-05-07T06:38:22.034Z,15.35
2019-05-07T06:41:07.728Z,14.53
2019-05-07T06:43:42.173Z,15.20
2019-05-07T06:46:12.540Z,15.90
2019-05-07T06:48:43.720Z,14.55
2019-05-07T06:51:12.598Z,15.43
2019-05-07T06:53:42.216Z,14.65
2019-05-07T06:56:12.228Z,14.53
2019-05-07T06:58:42.473Z,14.58
2019-05-07T07:01:14.878Z,14.43
2019-05-07T07:04:03.279Z,14.47
2019-05-07T07:06:33.490Z,15.05
2019-05-07T07:09:03.447Z,15.05
2019-05-07T07:11:33.426Z,15.85
2019-05-07T07:14:02.614Z,15.30
2019-05-07T07:16:32.597Z,14.98
2019-05-07T07:19:03.150Z,15.58
2019-05-07T07:21:32.702Z,15.28
2019-05-07T07:24:03.040Z,14.33
2019-05-07T07:26:32.790Z,13.72
2019-05-07T07:29:01.993Z,13.13
2019-05-07T07:31:34.869Z,13.50
2019-05-07T07:34:04.572Z,13.70
2019-05-07T07:36:34.501Z,14.13
2019-05-07T07:39:03.387Z,14.23
2019-05-07T07:41:39.331Z,15.18
2019-05-07T07:44:07.909Z,16.75
2019-05-07T07:46:36.590Z,16.02
2019-05-07T07:49:11.089Z,17.02
2019-05-07T07:51:41.521Z,17.15
2019-05-07T07:54:05.396Z,16.93
2019-05-07T07:56:48.981Z,16.52
2019-05-07T07:59:12.840Z,18.50
2019-05-07T08:01:52.470Z,18.17
2019-05-07T08:04:22.882Z,18.92
2019-05-07T08:06:52.538Z,19.87
2019-05-07T08:09:24.016Z,19.20
2019-05-07T08:11:52.715Z,18.98
2019-05-07T08:14:21.985Z,19.23
2019-05-07T08:16:52.771Z,17.77
2019-05-07T08:19:24.393Z,18.53
2019-05-07T08:21:52.124Z,17.75
2019-05-07T08:24:22.547Z,16.40
2019-05-07T08:26:51.891Z,14.80
2019-05-07T08:29:22.361Z,13.85
2019-05-07T08:32:02.315Z,14.50
2019-05-07T08:34:38.610Z,13.43
2019-05-07T08:37:06.908Z,14.25
2019-05-07T08:39:35.260Z,15.20
2019-05-07T08:42:04.116Z,14.30
2019-05-07T08:44:45.880Z,14.17
2019-05-07T08:47:24.967Z,14.55
2019-05-07T08:49:53.279Z,12.60
2019-05-07T08:52:22.345Z,14.30
2019-05-07T08:54:51.901Z,12.63
2019-05-07T08:57:22.562Z,13.20
2019-05-07T08:59:58.495Z,12.75
2019-05-07T09:02:22.206Z,12.87
2019-05-07T09:04:52.338Z,13.15
2019-05-07T09:07:21.853Z,12.90
2019-05-07T09:09:52.373Z,12.90
2019-05-07T09:12:22.711Z,12.80
2019-05-07T09:14:52.702Z,13.00
2019-05-07T09:17:22.763Z,13.90
2019-05-07T09:19:53.991Z,13.50
2019-05-07T09:22:22.892Z,13.23
2019-05-07T09:24:52.584Z,11.97
2019-05-07T09:27:23.039Z,11.97
2019-05-07T09:30:02.701Z,11.83
2019-05-07T09:32:42.517Z,11.10
2019-05-07T09:35:18.790Z,9.43
2019-05-07T09:37:47.112Z,10.38
2019-05-07T09:40:15.596Z,10.30
2019-05-07T09:42:43.904Z,11.50
2019-05-07T09:45:12.559Z,10.70
2019-05-07T09:47:41.803Z,10.43
2019-05-07T09:50:11.855Z,9.67
2019-05-07T09:52:42.525Z,9.68
2019-05-07T09:55:16.367Z,10.00
2019-05-07T09:57:42.459Z,10.10
2019-05-07T10:00:12.337Z,11.30
2019-05-07T10:02:42.531Z,11.00
2019-05-07T10:05:11.651Z,10.68
2019-05-07T10:07:42.201Z,8.80
2019-05-07T10:10:12.009Z,8.40
2019-05-07T10:12:44.969Z,8.03
2019-05-07T10:15:13.837Z,7.80
2019-05-07T10:17:43.852Z,9.00
2019-05-07T10:20:21.539Z,8.30
2019-05-07T10:22:42.959Z,9.08
2019-05-07T10:25:12.171Z,10.20
2019-05-07T10:27:41.889Z,9.35
2019-05-07T10:30:12.632Z,9.55
2019-05-07T10:32:42.112Z,10.73
2019-05-07T10:35:12.804Z,12.00
2019-05-07T10:37:42.331Z,11.15
2019-05-07T10:40:12.248Z,11.93
2019-05-07T10:42:42.818Z,12.20
2019-05-07T10:45:14.501Z,11.95
2019-05-07T10:47:52.013Z,11.38
2019-05-07T10:50:36.463Z,11.60
2019-05-07T10:52:58.014Z,12.00
2019-05-07T10:55:26.345Z,12.68
2019-05-07T10:57:54.702Z,12.40
2019-05-07T11:00:25.209Z,10.35
2019-05-07T11:02:53.505Z,10.20
2019-05-07T11:05:22.069Z,10.20
2019-05-07T11:07:50.388Z,10.18
2019-05-07T11:10:18.799Z,10.82
2019-05-07T11:12:47.100Z,11.18
2019-05-07T11:15:15.792Z,11.80
2019-05-07T11:17:52.215Z,9.98
2019-05-07T11:20:22.505Z,11.00
2019-05-07T11:22:52.213Z,11.78
2019-05-07T11:25:22.551Z,12.30
2019-05-07T11:27:52.422Z,12.18
2019-05-07T11:30:22.853Z,11.87
2019-05-07T11:32:52.208Z,10.80
2019-05-07T11:35:22.979Z,11.40
2019-05-07T11:37:52.029Z,10.30
2019-05-07T11:40:22.935Z,11.18
2019-05-07T11:42:59.195Z,11.28
2019-05-07T11:45:38.051Z,10.90
2019-05-07T11:48:06.372Z,10.75
2019-05-07T11:50:36.610Z,10.23
2019-05-07T11:53:12.347Z,10.57
2019-05-07T11:55:42.084Z,9.45
2019-05-07T11:58:12.642Z,8.70
2019-05-07T12:00:45.921Z,8.70
2019-05-07T12:03:14.581Z,8.50
2019-05-07T12:05:42.889Z,8.35
2019-05-07T12:08:13.068Z,8.10
2019-05-07T12:10:41.238Z,9.08
2019-05-07T12:13:09.840Z,8.43
2019-05-07T12:15:38.568Z,8.90
2019-05-07T12:18:06.854Z,7.95
2019-05-07T12:20:35.232Z,7.50
2019-05-07T12:23:03.537Z,8.80
2019-05-07T12:25:34.270Z,8.45
2019-05-07T12:28:02.610Z,8.70
2019-05-07T12:30:47.390Z,8.98
2019-05-07T12:33:20.289Z,8.40
2019-05-07T12:35:48.621Z,8.98
2019-05-07T12:38:16.951Z,8.83
2019-05-07T12:40:45.364Z,9.85
2019-05-07T12:43:13.684Z,10.40
2019-05-07T12:45:42.198Z,10.43
2019-05-07T12:48:12.180Z,10.00
2019-05-07T12:50:40.536Z,10.35
2019-05-07T12:53:28.768Z,12.20
2019-05-07T12:55:58.712Z,11.43
2019-05-07T12:58:27.546Z,11.50
2019-05-07T13:00:57.488Z,10.85
2019-05-07T13:03:39.519Z,10.58
2019-05-07T13:06:07.888Z,11.60
2019-05-07T13:08:36.191Z,11.20
2019-05-07T13:11:04.675Z,11.70
2019-05-07T13:13:32.968Z,11.48
2019-05-07T13:16:02.905Z,10.38
2019-05-07T13:18:31.915Z,8.63
2019-05-07T13:21:02.205Z,8.60
2019-05-07T13:23:31.844Z,8.95
2019-05-07T13:26:02.362Z,8.70
2019-05-07T13:28:30.822Z,8.23
2019-05-07T13:30:59.422Z,7.75
2019-05-07T13:33:27.922Z,7.90
2019-05-07T13:35:56.235Z,7.50
2019-05-07T13:38:29.305Z,7.80
2019-05-07T13:41:08.180Z,8.40
2019-05-07T13:43:41.029Z,7.83
2019-05-07T13:46:12.091Z,6.65
2019-05-07T13:48:45.494Z,7.03
2019-05-07T13:51:13.023Z,8.03
2019-05-07T13:53:42.798Z,8.23
2019-05-07T13:56:12.845Z,7.20
2019-05-07T13:58:42.846Z,7.75
2019-05-07T14:01:15.615Z,7.47
2019-05-07T14:03:43.988Z,7.73
2019-05-07T14:06:16.530Z,8.10
2019-05-07T14:08:45.114Z,7.50
2019-05-07T14:11:14.344Z,7.25
2019-05-07T14:13:43.631Z,7.35
2019-05-07T14:16:15.231Z,8.25
2019-05-07T14:18:43.608Z,7.92
2019-05-07T14:21:13.037Z,8.40
2019-05-07T14:23:42.758Z,7.60
2019-05-07T14:26:11.245Z,8.50
2019-05-07T14:28:42.158Z,7.58
2019-05-07T14:31:12.150Z,7.35
2019-05-07T14:33:41.640Z,7.80
2019-05-07T14:36:11.982Z,8.00
2019-05-07T14:38:42.645Z,8.30
2019-05-07T14:41:12.996Z,8.30
2019-05-07T14:43:43.246Z,8.30
2019-05-07T14:46:11.997Z,8.18
2019-05-07T14:48:41.910Z,8.10
2019-05-07T14:51:12.677Z,7.90
2019-05-07T14:53:41.849Z,8.60
2019-05-07T14:56:11.843Z,9.78
2019-05-07T14:58:42.261Z,9.08
2019-05-07T15:01:11.765Z,8.93
2019-05-07T15:03:42.247Z,8.93
2019-05-07T15:06:12.472Z,9.53
2019-05-07T15:08:40.362Z,9.35
2019-05-07T15:11:08.734Z,9.80
2019-05-07T15:13:37.127Z,8.38
2019-05-07T15:16:05.768Z,9.10
2019-05-07T15:18:42.470Z,12.17
2019-05-07T15:21:12.335Z,9.13
2019-05-07T15:23:42.479Z,10.60
2019-05-07T15:26:12.839Z,14.07
2019-05-07T15:28:43.010Z,10.53
2019-05-07T15:31:21.986Z,10.03
2019-05-07T15:33:52.162Z,10.40
2019-05-07T15:36:20.354Z,9.55
2019-05-07T15:38:48.657Z,10.13
2019-05-07T15:41:17.043Z,9.95
2019-05-07T15:43:46.256Z,9.80
2019-05-07T15:46:14.734Z,10.55
2019-05-07T15:48:43.025Z,9.25
2019-05-07T15:51:11.974Z,9.70
2019-05-07T15:53:42.767Z,10.00
2019-05-07T15:56:12.442Z,9.35
2019-05-07T15:58:42.588Z,9.05
2019-05-07T16:01:12.817Z,8.90
2019-05-07T16:03:43.373Z,9.30
2019-05-07T16:06:12.666Z,10.50
2019-05-07T16:08:48.753Z,9.28
2019-05-07T16:11:15.456Z,8.95
2019-05-07T16:13:45.416Z,9.95
2019-05-07T16:16:13.712Z,9.55
2019-05-07T16:19:01.770Z,9.28
2019-05-07T16:21:29.695Z,9.90
2019-05-07T16:23:58.247Z,9.15
2019-05-07T16:26:26.642Z,8.18
2019-05-07T16:28:54.945Z,9.40
2019-05-07T16:31:24.696Z,8.60
2019-05-07T16:33:53.215Z,7.83
2019-05-07T16:36:22.030Z,8.57
2019-05-07T16:38:52.512Z,8.28
2019-05-07T16:41:22.303Z,7.90
2019-05-07T16:43:52.468Z,7.80
2019-05-07T16:46:22.423Z,7.50
2019-05-07T16:48:50.836Z,7.42
2019-05-07T16:51:19.262Z,9.18
2019-05-07T16:53:47.613Z,7.42
2019-05-07T16:56:16.276Z,7.80
2019-05-07T16:58:46.209Z,7.00
2019-05-07T17:01:16.001Z,8.03
2019-05-07T17:03:45.960Z,7.83
2019-05-07T17:06:14.615Z,8.48
2019-05-07T17:08:46.984Z,7.65
2019-05-07T17:11:15.517Z,7.72
2019-05-07T17:13:43.817Z,7.28
2019-05-07T17:16:12.529Z,7.70
2019-05-07T17:18:40.842Z,8.07
2019-05-07T17:21:09.135Z,7.83
2019-05-07T17:23:44.024Z,7.80
2019-05-07T17:26:07.542Z,7.70
2019-05-07T17:28:35.837Z,7.70
2019-05-07T17:31:04.426Z,8.13
2019-05-07T17:33:32.725Z,8.80
2019-05-07T17:36:02.431Z,8.53
2019-05-07T17:38:32.251Z,8.18
2019-05-07T17:41:10.904Z,8.60
2019-05-07T17:43:32.480Z,8.80
2019-05-07T17:46:02.789Z,8.40
2019-05-07T17:48:32.296Z,8.50
2019-05-07T17:51:08.680Z,8.95
2019-05-07T17:53:37.467Z,8.70
2019-05-07T17:56:05.786Z,8.90
2019-05-07T17:58:34.091Z,9.40
2019-05-07T18:01:04.053Z,8.33
2019-05-07T18:03:36.531Z,8.50
2019-05-07T18:06:05.185Z,8.45
2019-05-07T18:08:33.875Z,8.45
2019-05-07T18:11:02.615Z,8.85
2019-05-07T18:13:32.653Z,8.40
2019-05-07T18:16:02.983Z,9.05
2019-05-07T18:18:32.783Z,9.28
2019-05-07T18:21:02.219Z,9.25
2019-05-07T18:23:32.135Z,8.83
2019-05-07T18:26:00.771Z,9.30
2019-05-07T18:28:29.934Z,9.55
2019-05-07T18:30:59.129Z,9.78
2019-05-07T18:33:33.634Z,9.87
2019-05-07T18:36:02.830Z,10.32
2019-05-07T18:38:32.873Z,9.38
2019-05-07T18:41:02.712Z,10.15
2019-05-07T18:43:32.963Z,9.35
2019-05-07T18:46:02.350Z,9.20
2019-05-07T18:48:30.889Z,8.85
2019-05-07T18:50:59.198Z,10.15
2019-05-07T18:53:27.553Z,11.10
2019-05-07T18:55:55.889Z,11.00
2019-05-07T18:58:24.488Z,11.12
2019-05-07T19:00:54.438Z,10.60
2019-05-07T19:03:25.234Z,10.60
2019-05-07T19:05:52.779Z,10.33
2019-05-07T19:08:22.957Z,9.60
2019-05-07T19:10:52.281Z,9.95
2019-05-07T19:13:22.160Z,9.60
2019-05-07T19:15:52.737Z,10.43
2019-05-07T19:18:22.803Z,9.97
2019-05-07T19:20:53.009Z,9.98
2019-05-07T19:23:22.350Z,9.50
2019-05-07T19:25:52.330Z,10.25
2019-05-07T19:28:22.484Z,10.25
2019-05-07T19:30:52.810Z,10.17
2019-05-07T19:33:26.176Z,10.30
2019-05-07T19:35:52.750Z,10.13
2019-05-07T19:38:21.386Z,11.18
2019-05-07T19:40:52.654Z,12.15
2019-05-07T19:43:20.529Z,12.68
2019-05-07T19:45:48.826Z,13.30
2019-05-07T19:48:17.554Z,13.50
2019-05-07T19:50:45.958Z,13.30
2019-05-07T19:53:14.272Z,13.90
2019-05-07T19:55:45.511Z,13.60
2019-05-07T19:58:13.834Z,14.10
2019-05-07T20:00:45.298Z,13.50
2019-05-07T20:03:13.143Z,13.85
2019-05-07T20:05:41.987Z,12.90
2019-05-07T20:08:12.047Z,12.90
2019-05-07T20:10:42.297Z,12.70
2019-05-07T20:13:12.476Z,13.30
2019-05-07T20:15:42.674Z,12.43
2019-05-07T20:18:12.448Z,11.95
2019-05-07T20:20:42.416Z,11.03
2019-05-07T20:23:12.012Z,11.78
2019-05-07T20:25:42.023Z,12.10
2019-05-07T20:28:12.722Z,11.85
2019-05-07T20:30:41.813Z,12.10
2019-05-07T20:33:10.178Z,11.93
2019-05-07T20:35:41.309Z,12.82
2019-05-07T20:38:08.786Z,12.00
2019-05-07T20:40:37.471Z,12.30
2019-05-07T20:43:06.035Z,12.20
2019-05-07T20:45:34.377Z,12.00
2019-05-07T20:48:02.698Z,11.90
2019-05-07T20:50:33.109Z,11.50
2019-05-07T20:53:02.032Z,11.38
2019-05-07T20:55:33.964Z,11.53
2019-05-07T20:58:03.203Z,11.90
2019-05-07T21:00:32.688Z,11.97
2019-05-07T21:03:19.817Z,12.03
2019-05-07T21:05:53.303Z,11.63
2019-05-07T21:08:22.796Z,11.70
2019-05-07T21:10:53.486Z,12.73
2019-05-07T21:13:28.500Z,12.28
2019-05-07T21:15:52.632Z,11.73
2019-05-07T21:18:23.223Z,12.90
2019-05-07T21:20:52.937Z,14.33
2019-05-07T21:23:23.035Z,13.10
2019-05-07T21:25:52.851Z,13.00
2019-05-07T21:28:21.475Z,12.90
2019-05-07T21:30:52.133Z,13.48
2019-05-07T21:33:22.589Z,12.68
2019-05-07T21:35:52.368Z,13.83
2019-05-07T21:38:22.335Z,13.98
2019-05-07T21:40:50.920Z,12.95
2019-05-07T21:43:19.227Z,13.47
2019-05-07T21:45:47.537Z,13.00
2019-05-07T21:48:15.846Z,13.10
2019-05-07T21:50:44.148Z,12.90
2019-05-07T21:53:23.127Z,12.78
2019-05-07T21:56:12.365Z,13.28
2019-05-07T21:58:45.628Z,13.58
2019-05-07T22:01:18.566Z,13.38
2019-05-07T22:03:48.541Z,13.70
2019-05-07T22:06:16.922Z,13.22
2019-05-07T22:08:45.221Z,13.30
2019-05-07T22:11:13.540Z,13.80
2019-05-07T22:13:43.539Z,13.05
2019-05-07T22:16:12.972Z,13.10
2019-05-07T22:18:42.655Z,13.63
2019-05-07T22:21:12.532Z,13.50
2019-05-07T22:23:42.757Z,13.50
2019-05-07T22:26:20.221Z,13.50
2019-05-07T22:28:42.025Z,13.93
2019-05-07T22:31:18.364Z,14.07
2019-05-07T22:33:52.651Z,14.50
2019-05-07T22:36:21.987Z,13.83
2019-05-07T22:38:52.479Z,13.62
2019-05-07T22:41:22.393Z,14.00
2019-05-07T22:43:50.890Z,14.18
2019-05-07T22:46:19.193Z,14.47
2019-05-07T22:48:47.757Z,15.63
2019-05-07T22:51:16.052Z,15.10
2019-05-07T22:53:44.363Z,14.95
2019-05-07T22:56:14.112Z,14.40
2019-05-07T22:58:44.208Z,15.13
2019-05-07T23:01:14.141Z,14.87
2019-05-07T23:03:43.073Z,15.73
2019-05-07T23:06:12.261Z,14.55
2019-05-07T23:08:42.418Z,14.65
2019-05-07T23:11:12.278Z,15.00
2019-05-07T23:13:42.671Z,15.45
2019-05-07T23:16:12.509Z,14.98
2019-05-07T23:18:42.836Z,14.50
2019-05-07T23:21:11.514Z,15.20
2019-05-07T23:23:42.016Z,15.03
2019-05-07T23:26:14.314Z,14.73
2019-05-07T23:28:41.882Z,14.55
2019-05-07T23:31:12.058Z,14.53
2019-05-07T23:33:40.313Z,14.93
2019-05-07T23:36:08.618Z,14.30
2019-05-07T23:38:36.919Z,14.73
2019-05-07T23:41:23.133Z,14.25
2019-05-07T23:44:12.551Z,15.03
2019-05-07T23:46:44.387Z,15.23
2019-05-07T23:49:12.426Z,15.70
2019-05-07T23:51:42.123Z,14.38
2019-05-07T23:54:12.212Z,15.77
2019-05-07T23:56:42.752Z,15.05
2019-05-07T23:59:12.775Z,14.78
